Time;durP1;ratioP1;P1;durP2;ratioP2;P2;SDS_P1;SDS_P2;PMS_P1;PMS_P2;Temp;Humidity;BMP_temperature;BMP_pressure;BME280_temperature;BME280_humidity;BME280_pressure;Samples;Min_cycle;Max_cycle;Signal;HPM_P1;HPM_P2
2023/08/11 00:01:51;;;;;;;15.02;4.40;;;;;;;15.45;100.00;101731.13;5030225;28;20052;-76
2023/08/11 00:04:18;;;;;;;16.20;4.70;;;;;;;15.41;100.00;101736.81;5022031;28;20562;-79
2023/08/11 00:06:44;;;;;;;10.80;4.45;;;;;;;15.41;100.00;101738.81;5027936;28;20558;-78
2023/08/11 00:09:13;;;;;;;11.20;4.60;;;;;;;15.41;100.00;101747.22;5027183;28;20092;-80
2023/08/11 00:11:41;;;;;;;11.10;5.30;;;;;;;15.37;100.00;101755.69;5023997;28;20049;-79
2023/08/11 00:14:09;;;;;;;12.32;5.20;;;;;;;15.36;100.00;101736.50;5025990;28;20095;-79
2023/08/11 00:16:39;;;;;;;12.30;5.45;;;;;;;15.32;100.00;101733.72;5028021;28;20049;-77
2023/08/11 00:19:06;;;;;;;12.40;5.43;;;;;;;15.32;100.00;101744.91;5028985;28;20107;-77
2023/08/11 00:21:32;;;;;;;11.70;4.90;;;;;;;15.30;100.00;101736.16;5026026;28;20466;-77
2023/08/11 00:23:59;;;;;;;12.23;5.28;;;;;;;15.26;100.00;101743.81;5026456;28;20060;-77
2023/08/11 00:26:25;;;;;;;13.63;5.05;;;;;;;15.25;100.00;101747.06;5032782;28;20045;-76
2023/08/11 00:28:52;;;;;;;12.85;4.95;;;;;;;15.26;100.00;101748.66;5029026;28;20057;-78
2023/08/11 00:31:19;;;;;;;16.35;5.22;;;;;;;15.23;100.00;101750.28;5036738;28;20122;-79
2023/08/11 00:33:51;;;;;;;15.07;5.68;;;;;;;15.16;100.00;101750.41;5028739;28;20065;-76
2023/08/11 00:36:18;;;;;;;17.65;4.88;;;;;;;15.16;100.00;101753.22;5026525;28;20057;-77
2023/08/11 00:38:44;;;;;;;12.63;5.35;;;;;;;15.21;100.00;101749.13;5028267;28;20053;-79
2023/08/11 00:41:11;;;;;;;15.88;5.53;;;;;;;15.15;100.00;101746.00;5027931;28;20124;-79
2023/08/11 00:43:37;;;;;;;15.70;5.55;;;;;;;15.18;100.00;101741.56;5037485;28;20100;-76
2023/08/11 00:46:10;;;;;;;12.15;4.90;;;;;;;15.09;100.00;101741.31;5026843;28;20602;-74
2023/08/11 00:48:43;;;;;;;15.05;5.63;;;;;;;15.09;100.00;101739.28;5026459;28;20042;-76
2023/08/11 00:51:14;;;;;;;12.50;5.25;;;;;;;15.10;100.00;101743.69;5019414;28;20088;-76
2023/08/11 00:53:40;;;;;;;14.68;5.88;;;;;;;15.08;100.00;101740.50;5024948;28;20115;-76
2023/08/11 00:56:07;;;;;;;14.25;5.38;;;;;;;15.10;100.00;101742.91;5026321;28;20247;-78
2023/08/11 00:58:35;;;;;;;16.13;5.47;;;;;;;15.05;100.00;101735.00;5028767;28;20057;-76
2023/08/11 01:01:01;;;;;;;10.85;5.20;;;;;;;15.00;100.00;101730.66;5028840;28;20048;-75
2023/08/11 01:03:28;;;;;;;12.60;4.82;;;;;;;14.99;100.00;101729.06;5027496;28;20053;-76
2023/08/11 01:06:08;;;;;;;10.48;5.20;;;;;;;15.01;100.00;101737.81;5028214;28;20061;-80
2023/08/11 01:08:50;;;;;;;19.02;5.85;;;;;;;15.04;100.00;101731.38;5025344;28;20057;-77
2023/08/11 01:11:26;;;;;;;15.73;5.55;;;;;;;15.02;100.00;101731.00;5023266;28;20372;-78
2023/08/11 01:14:02;;;;;;;12.23;5.18;;;;;;;14.95;100.00;101717.13;5026178;28;20119;-79
2023/08/11 01:16:31;;;;;;;12.05;4.90;;;;;;;14.95;100.00;101731.91;5028711;28;20495;-77
2023/08/11 01:18:58;;;;;;;11.90;4.72;;;;;;;14.90;100.00;101735.22;5030460;28;20052;-80
2023/08/11 01:21:27;;;;;;;11.63;5.63;;;;;;;14.90;100.00;101729.59;5032230;28;20076;-77
2023/08/11 01:23:55;;;;;;;13.57;5.30;;;;;;;14.91;100.00;101727.56;5026883;28;20119;-77
2023/08/11 01:26:22;;;;;;;13.73;5.15;;;;;;;14.90;100.00;101723.19;5028174;28;20638;-76
2023/08/11 01:28:52;;;;;;;12.57;5.47;;;;;;;14.82;100.00;101716.91;5026571;28;20103;-78
2023/08/11 01:31:19;;;;;;;13.45;5.57;;;;;;;14.83;100.00;101712.88;5025613;28;20080;-75
2023/08/11 01:33:46;;;;;;;14.95;5.72;;;;;;;14.82;100.00;101716.91;5028123;28;20114;-76
2023/08/11 01:36:12;;;;;;;12.43;4.93;;;;;;;14.79;100.00;101716.97;5025010;28;20053;-77
2023/08/11 01:38:39;;;;;;;12.75;4.90;;;;;;;14.75;100.00;101717.03;5026812;28;20053;-77
2023/08/11 01:41:06;;;;;;;13.60;5.13;;;;;;;14.75;100.00;101722.63;5028266;28;20045;-77
2023/08/11 01:43:34;;;;;;;11.48;4.95;;;;;;;14.77;100.00;101725.81;5027434;28;20099;-76
2023/08/11 01:46:02;;;;;;;15.73;4.97;;;;;;;14.76;100.00;101724.19;5028347;28;20099;-76
2023/08/11 01:48:30;;;;;;;12.68;4.88;;;;;;;14.72;100.00;101715.06;5027363;28;20055;-77
2023/08/11 01:50:57;;;;;;;14.05;5.05;;;;;;;14.69;100.00;101712.31;5026631;28;20061;-77
2023/08/11 01:53:24;;;;;;;15.07;5.25;;;;;;;14.68;100.00;101719.13;5027147;28;20041;-75
2023/08/11 01:55:50;;;;;;;11.25;5.13;;;;;;;14.66;100.00;101716.75;5027119;28;20045;-77
2023/08/11 01:58:17;;;;;;;13.30;5.20;;;;;;;14.65;100.00;101715.16;5026896;28;20065;-80
2023/08/11 02:00:43;;;;;;;11.68;5.63;;;;;;;14.64;100.00;101721.19;5027412;28;20473;-77
2023/08/11 02:03:10;;;;;;;13.57;5.60;;;;;;;14.61;100.00;101716.41;5025631;28;20084;-77
2023/08/11 02:05:37;;;;;;;15.23;5.15;;;;;;;14.63;100.00;101725.19;5027235;28;20049;-77
2023/08/11 02:08:04;;;;;;;11.52;4.90;;;;;;;14.60;100.00;101723.25;5030572;28;20054;-77
2023/08/11 02:10:30;;;;;;;19.63;5.35;;;;;;;14.71;100.00;101721.88;5039647;28;20056;-76
2023/08/11 02:12:57;;;;;;;13.93;5.10;;;;;;;14.66;100.00;101713.94;5029516;28;20050;-77
2023/08/11 02:15:24;;;;;;;14.05;5.15;;;;;;;14.58;100.00;101712.47;5027650;28;20104;-77
2023/08/11 02:17:50;;;;;;;13.55;5.45;;;;;;;14.56;100.00;101709.28;5025324;28;20095;-75
2023/08/11 02:22:48;;;;;;;12.82;5.97;;;;;;;14.73;100.00;101699.88;5023692;28;20053;-77
2023/08/11 02:25:15;;;;;;;10.88;5.05;;;;;;;14.69;100.00;101682.31;5027880;28;20045;-77
2023/08/11 02:27:42;;;;;;;11.35;4.95;;;;;;;14.66;100.00;101691.56;5027583;28;20049;-77
2023/08/11 02:30:11;;;;;;;13.93;5.28;;;;;;;14.59;100.00;101708.44;5038072;28;20045;-77
2023/08/11 02:32:41;;;;;;;16.90;5.75;;;;;;;14.51;100.00;101694.97;5031742;28;20061;-80
2023/08/11 02:35:10;;;;;;;16.63;5.95;;;;;;;14.44;100.00;101689.47;5029815;28;20045;-78
2023/08/11 02:37:37;;;;;;;15.60;6.05;;;;;;;14.41;100.00;101691.09;5030478;28;20119;-76
2023/08/11 02:40:08;;;;;;;12.25;5.50;;;;;;;14.40;100.00;101694.31;5030202;28;20263;-77
2023/08/11 02:42:37;;;;;;;16.58;5.55;;;;;;;14.41;100.00;101696.69;5030894;28;20130;-78
2023/08/11 02:45:08;;;;;;;11.63;4.75;;;;;;;14.40;100.00;101695.09;5030950;28;20049;-77
2023/08/11 02:47:35;;;;;;;12.50;5.30;;;;;;;14.40;100.00;101700.69;5029062;28;20104;-77
2023/08/11 02:50:04;;;;;;;12.60;5.38;;;;;;;14.40;100.00;101685.91;5030008;28;20111;-76
2023/08/11 02:52:30;;;;;;;14.10;5.57;;;;;;;14.40;100.00;101688.72;5029335;28;20132;-78
2023/08/11 02:54:57;;;;;;;17.02;5.63;;;;;;;14.39;100.00;101693.50;5030811;28;20045;-77
2023/08/11 02:57:23;;;;;;;19.95;5.68;;;;;;;14.37;100.00;101684.75;5030732;28;20111;-74
2023/08/11 02:59:50;;;;;;;14.35;5.53;;;;;;;14.37;100.00;101697.94;5029579;28;20049;-80
2023/08/11 03:02:17;;;;;;;13.73;6.65;;;;;;;14.36;100.00;101691.56;5029547;28;20052;-77
2023/08/11 03:04:43;;;;;;;12.63;5.40;;;;;;;14.36;100.00;101694.38;5030272;28;20095;-75
2023/08/11 03:07:12;;;;;;;18.83;5.65;;;;;;;14.33;100.00;101695.22;5029623;28;20076;-76
2023/08/11 03:09:39;;;;;;;12.10;5.20;;;;;;;14.31;100.00;101682.81;5030647;28;20080;-76
2023/08/11 03:12:07;;;;;;;13.23;6.15;;;;;;;14.29;100.00;101694.47;5029495;28;20471;-76
2023/08/11 03:14:36;;;;;;;12.25;5.35;;;;;;;14.26;100.00;101686.09;5029947;28;20084;-76
2023/08/11 03:17:05;;;;;;;12.50;5.07;;;;;;;14.23;100.00;101693.34;5027565;28;20057;-78
2023/08/11 03:19:32;;;;;;;10.75;4.63;;;;;;;14.21;100.00;101681.75;5030637;28;20057;-76
2023/08/11 03:21:59;;;;;;;14.05;5.82;;;;;;;14.22;100.00;101693.75;5032449;28;20075;-79
2023/08/11 03:24:26;;;;;;;11.63;5.28;;;;;;;14.21;100.00;101676.19;5034193;28;20053;-77
2023/08/11 03:26:53;;;;;;;14.32;5.57;;;;;;;14.17;100.00;101680.22;5029748;28;20531;-79
2023/08/11 03:29:19;;;;;;;16.98;5.22;;;;;;;14.14;100.00;101683.84;5029053;28;20058;-78
2023/08/11 03:31:46;;;;;;;16.20;5.40;;;;;;;14.16;100.00;101684.25;5030225;28;20049;-76
2023/08/11 03:34:13;;;;;;;12.35;5.80;;;;;;;14.14;100.00;101675.47;5028216;28;20062;-77
2023/08/11 03:36:39;;;;;;;15.50;5.60;;;;;;;14.11;100.00;101681.91;5029533;28;20048;-81
2023/08/11 03:39:06;;;;;;;12.30;5.25;;;;;;;14.11;100.00;101693.09;5028853;28;20508;-77
2023/08/11 03:41:32;;;;;;;10.57;5.18;;;;;;;14.12;100.00;101677.91;5029127;28;20111;-77
2023/08/11 03:43:59;;;;;;;16.70;5.63;;;;;;;14.10;100.00;101677.53;5029765;28;20084;-77
2023/08/11 03:46:26;;;;;;;17.73;5.65;;;;;;;14.11;100.00;101676.31;5028604;28;20609;-78
2023/08/11 03:48:54;;;;;;;14.40;5.78;;;;;;;14.10;100.00;101680.31;5029622;28;20045;-77
2023/08/11 03:51:20;;;;;;;12.02;5.57;;;;;;;14.09;100.00;101687.13;5029367;28;20045;-77
2023/08/11 03:53:47;;;;;;;17.95;5.82;;;;;;;14.05;100.00;101689.19;5028519;28;20064;-75
2023/08/11 03:56:14;;;;;;;12.07;5.75;;;;;;;14.17;100.00;101683.03;5029812;28;20069;-80
2023/08/11 03:58:40;;;;;;;13.90;5.63;;;;;;;14.16;100.00;101682.25;5028470;28;20089;-77
2023/08/11 04:01:07;;;;;;;21.90;6.80;;;;;;;14.24;100.00;101680.94;5028631;28;20076;-77
2023/08/11 04:03:33;;;;;;;17.95;6.28;;;;;;;14.29;100.00;101682.47;5029650;28;20050;-76
2023/08/11 04:06:01;;;;;;;12.45;5.50;;;;;;;14.28;100.00;101680.91;5028802;28;20623;-77
2023/08/11 04:08:28;;;;;;;17.73;5.75;;;;;;;14.32;100.00;101676.81;5029520;28;20057;-77
2023/08/11 04:10:55;;;;;;;14.40;5.80;;;;;;;14.31;100.00;101688.44;5029785;28;20049;-77
2023/08/11 04:13:22;;;;;;;16.92;6.32;;;;;;;14.19;100.00;101680.59;5029499;28;20131;-79
2023/08/11 04:15:49;;;;;;;11.52;5.60;;;;;;;14.20;100.00;101674.59;5029284;28;20054;-77
2023/08/11 04:18:18;;;;;;;12.75;5.72;;;;;;;14.10;100.00;101685.91;5027129;28;20049;-78
2023/08/11 04:20:46;;;;;;;14.48;5.80;;;;;;;14.06;100.00;101693.56;5029101;28;20064;-78
2023/08/11 04:23:13;;;;;;;12.18;5.55;;;;;;;14.02;100.00;101692.81;5028232;28;20053;-78
2023/08/11 04:25:40;;;;;;;15.10;5.93;;;;;;;13.96;100.00;101691.69;5029124;28;20536;-78
2023/08/11 04:28:06;;;;;;;12.45;5.60;;;;;;;13.96;100.00;101698.06;5027114;28;20057;-77
2023/08/11 04:30:33;;;;;;;14.50;6.05;;;;;;;13.93;100.00;101698.09;5027935;28;20103;-78
2023/08/11 04:33:00;;;;;;;14.32;6.47;;;;;;;13.96;100.00;101700.88;5029201;28;20053;-79
2023/08/11 04:35:27;;;;;;;13.85;6.20;;;;;;;13.99;100.00;101704.81;5028568;28;20045;-77
2023/08/11 04:37:54;;;;;;;15.80;6.18;;;;;;;13.96;100.00;101694.47;5029131;28;20045;-76
2023/08/11 04:40:20;;;;;;;13.30;5.90;;;;;;;13.96;100.00;101700.88;5028196;28;20483;-76
2023/08/11 04:42:47;;;;;;;15.73;6.00;;;;;;;13.97;100.00;101701.63;5027975;28;20709;-78
2023/08/11 04:45:16;;;;;;;13.68;6.25;;;;;;;13.99;100.00;101704.81;5028603;28;20127;-77
2023/08/11 04:47:43;;;;;;;11.98;5.90;;;;;;;13.97;100.00;101690.47;5028045;28;20062;-76
2023/08/11 04:50:11;;;;;;;13.60;6.15;;;;;;;14.17;100.00;101681.03;5027514;28;20060;-78
2023/08/11 04:52:38;;;;;;;13.90;6.50;;;;;;;14.17;100.00;101685.81;5036721;28;20054;-76
2023/08/11 04:55:07;;;;;;;17.02;6.13;;;;;;;14.22;100.00;101676.97;5027497;28;20049;-74
2023/08/11 04:57:35;;;;;;;17.52;6.40;;;;;;;14.23;100.00;101686.94;5028425;28;20133;-76
2023/08/11 05:00:06;;;;;;;15.18;6.50;;;;;;;14.21;100.00;101689.38;5037009;28;20057;-74
2023/08/11 05:02:33;;;;;;;16.17;6.15;;;;;;;14.09;100.00;101679.53;5028702;28;20577;-76
2023/08/11 05:05:00;;;;;;;16.60;6.57;;;;;;;14.10;100.00;101686.72;5028084;28;20053;-76
2023/08/11 05:07:26;;;;;;;14.32;6.90;;;;;;;14.14;100.00;101695.84;5036800;28;20109;-76
2023/08/11 05:09:53;;;;;;;16.15;6.85;;;;;;;14.21;100.00;101697.78;5027344;28;20511;-76
2023/08/11 05:12:20;;;;;;;18.63;7.22;;;;;;;14.23;100.00;101701.72;5026008;28;20053;-76
2023/08/11 05:14:47;;;;;;;18.88;7.80;;;;;;;14.19;100.00;101694.59;5025528;28;20050;-75
2023/08/11 05:17:14;;;;;;;17.67;6.65;;;;;;;14.27;100.00;101696.06;5026632;28;20419;-76
2023/08/11 05:19:40;;;;;;;15.35;6.63;;;;;;;14.34;100.00;101704.38;5028288;28;20095;-76
2023/08/11 05:22:07;;;;;;;17.30;6.90;;;;;;;14.42;100.00;101703.13;5027495;28;20064;-73
2023/08/11 05:24:33;;;;;;;15.02;6.63;;;;;;;14.45;100.00;101702.28;5027189;28;20565;-74
2023/08/11 05:27:00;;;;;;;18.45;7.15;;;;;;;14.53;100.00;101712.16;5026904;28;20046;-77
2023/08/11 05:29:27;;;;;;;17.73;6.90;;;;;;;14.60;100.00;101703.66;5027629;28;20053;-74
2023/08/11 05:31:53;;;;;;;16.27;6.85;;;;;;;14.68;100.00;101700.31;5027031;28;20104;-76
2023/08/11 05:34:20;;;;;;;17.08;7.30;;;;;;;14.74;100.00;101703.44;5028256;28;20080;-76
2023/08/11 05:36:46;;;;;;;19.33;7.40;;;;;;;14.84;100.00;101708.09;5026829;28;20103;-77
2023/08/11 05:39:13;;;;;;;16.63;6.93;;;;;;;14.91;100.00;101707.97;5028348;28;20085;-77
2023/08/11 05:41:41;;;;;;;16.98;6.15;;;;;;;14.98;100.00;101707.88;5027993;28;20054;-76
2023/08/11 05:44:08;;;;;;;19.88;6.75;;;;;;;15.04;100.00;101692.19;5026515;28;20095;-75
2023/08/11 05:46:34;;;;;;;20.50;8.32;;;;;;;15.13;100.00;101703.63;5026404;28;20045;-77
2023/08/11 05:49:01;;;;;;;15.38;6.63;;;;;;;15.21;100.00;101701.50;5025547;28;20060;-76
2023/08/11 05:51:28;;;;;;;17.35;6.82;;;;;;;15.27;100.00;101695.00;5027313;28;20049;-76
2023/08/11 05:53:54;;;;;;;19.90;7.07;;;;;;;15.38;100.00;101697.63;5023800;28;20107;-76
2023/08/11 05:56:21;;;;;;;19.90;6.75;;;;;;;15.44;100.00;101690.31;5027993;28;20053;-75
2023/08/11 05:58:47;;;;;;;16.35;6.88;;;;;;;15.55;100.00;101690.91;5027634;28;20057;-76
2023/08/11 06:01:14;;;;;;;14.32;7.00;;;;;;;15.63;100.00;101684.75;5028322;28;20135;-76
2023/08/11 06:03:41;;;;;;;14.35;6.65;;;;;;;15.73;100.00;101680.94;5025452;28;20049;-74
2023/08/11 06:06:07;;;;;;;16.42;6.18;;;;;;;15.82;100.00;101683.19;5030876;28;20099;-76
2023/08/11 06:08:34;;;;;;;21.63;7.20;;;;;;;15.90;100.00;101674.19;5031020;28;20140;-76
2023/08/11 06:11:01;;;;;;;16.17;6.93;;;;;;;16.05;100.00;101672.69;5023664;28;20393;-76
2023/08/11 06:13:27;;;;;;;17.17;6.35;;;;;;;16.10;100.00;101660.97;5024192;28;20133;-75
2023/08/11 06:15:54;;;;;;;13.85;6.15;;;;;;;16.21;100.00;101667.16;5029209;28;20056;-75
2023/08/11 06:18:20;;;;;;;15.35;6.10;;;;;;;16.27;100.00;101659.81;5033860;28;20428;-76
2023/08/11 06:20:47;;;;;;;16.40;6.38;;;;;;;16.37;100.00;101658.78;5030622;28;20053;-76
2023/08/11 06:23:14;;;;;;;15.77;6.47;;;;;;;16.42;100.00;101649.88;5028690;28;20057;-79
2023/08/11 06:25:41;;;;;;;12.98;5.75;;;;;;;16.70;100.00;101656.81;5029519;28;20050;-76
2023/08/11 06:28:08;;;;;;;13.90;4.68;;;;;;;16.61;100.00;101646.19;5030020;28;20049;-79
2023/08/11 06:30:35;;;;;;;11.23;5.10;;;;;;;16.71;100.00;101641.59;5030376;28;20076;-80
2023/08/11 06:33:01;;;;;;;14.52;4.80;;;;;;;16.86;100.00;101651.22;5038458;28;20065;-81
2023/08/11 06:35:29;;;;;;;18.08;5.40;;;;;;;17.02;100.00;101637.97;5035930;28;20089;-81
2023/08/11 06:37:56;;;;;;;13.95;5.40;;;;;;;17.02;100.00;101632.34;5038386;28;20046;-81
2023/08/11 06:40:22;;;;;;;8.52;4.43;;;;;;;17.13;100.00;101637.72;5036216;28;20095;-81
2023/08/11 06:42:49;;;;;;;13.65;5.18;;;;;;;17.22;100.00;101635.88;5039731;28;20474;-81
2023/08/11 06:45:15;;;;;;;10.68;4.65;;;;;;;17.27;100.00;101623.31;5044116;28;20064;-81
2023/08/11 06:47:42;;;;;;;14.27;4.95;;;;;;;17.49;100.00;101631.97;5037920;28;20050;-83
2023/08/11 06:50:09;;;;;;;10.48;4.30;;;;;;;17.54;100.00;101631.41;5031940;28;20055;-81
2023/08/11 06:52:35;;;;;;;13.95;4.50;;;;;;;17.57;100.00;101622.88;5035294;28;20141;-83
2023/08/11 06:55:03;;;;;;;11.77;3.95;;;;;;;17.73;100.00;101633.28;5033942;28;20518;-81
2023/08/11 06:57:30;;;;;;;11.68;5.70;;;;;;;17.84;100.00;101637.38;5031854;28;20045;-76
2023/08/11 06:59:56;;;;;;;13.68;4.30;;;;;;;17.93;100.00;101631.94;5028496;28;20049;-75
2023/08/11 07:02:23;;;;;;;9.75;3.85;;;;;;;17.97;100.00;101621.34;5040071;28;20569;-78
2023/08/11 07:04:50;;;;;;;14.40;4.53;;;;;;;18.11;100.00;101620.94;5030191;28;20053;-76
2023/08/11 07:07:16;;;;;;;11.02;4.07;;;;;;;18.20;100.00;101617.44;5027098;28;20045;-76
2023/08/11 07:09:43;;;;;;;13.00;3.88;;;;;;;18.37;100.00;101610.50;5031139;28;20062;-81
2023/08/11 07:12:09;;;;;;;13.15;4.43;;;;;;;18.47;100.00;101612.19;5034395;28;20049;-82
2023/08/11 07:14:36;;;;;;;11.38;3.85;;;;;;;18.50;100.00;101614.88;5031903;28;20049;-82
2023/08/11 07:17:03;;;;;;;9.90;3.67;;;;;;;18.58;100.00;101607.00;5033059;28;20099;-80
2023/08/11 07:19:30;;;;;;;10.02;3.80;;;;;;;18.70;100.00;101611.84;5033250;28;20049;-82
2023/08/11 07:21:56;;;;;;;12.25;4.15;;;;;;;18.72;100.00;101607.34;5028697;28;20195;-81
2023/08/11 07:24:23;;;;;;;10.73;4.03;;;;;;;18.84;100.00;101608.56;5031441;28;20057;-83
2023/08/11 07:26:49;;;;;;;13.23;3.88;;;;;;;18.99;100.00;101607.63;5033031;28;20054;-86
2023/08/11 07:29:16;;;;;;;14.32;4.07;;;;;;;19.15;100.00;101607.50;5034300;28;20088;-81
2023/08/11 07:31:43;;;;;;;8.15;3.88;;;;;;;19.14;100.00;101605.13;5033657;28;20122;-81
2023/08/11 07:34:10;;;;;;;10.40;3.30;;;;;;;19.22;100.00;101604.44;5032482;28;20053;-83
2023/08/11 07:36:37;;;;;;;9.63;2.70;;;;;;;19.35;100.00;101596.69;5035100;28;20053;-79
2023/08/11 07:39:07;;;;;;;8.05;3.05;;;;;;;19.53;100.00;101604.53;5031966;28;20045;-82
2023/08/11 07:41:50;;;;;;;9.80;3.77;;;;;;;19.57;100.00;101596.75;5030262;28;20050;-81
2023/08/11 07:44:16;;;;;;;11.05;3.83;;;;;;;19.73;100.00;101599.38;5031307;28;20072;-80
2023/08/11 07:46:43;;;;;;;11.65;3.75;;;;;;;19.82;100.00;101602.25;5030232;28;20523;-81
2023/08/11 07:49:09;;;;;;;8.98;3.42;;;;;;;19.96;100.00;101610.19;5035454;28;20053;-82
2023/08/11 07:51:36;;;;;;;6.45;3.22;;;;;;;19.93;100.00;101605.47;5034669;28;20056;-83
2023/08/11 07:54:03;;;;;;;18.05;4.40;;;;;;;19.99;100.00;101603.63;5030174;28;20045;-82
2023/08/11 07:56:30;;;;;;;13.38;3.53;;;;;;;20.21;100.00;101604.38;5033536;28;20051;-82
2023/08/11 07:58:56;;;;;;;9.52;3.60;;;;;;;20.14;100.00;101601.81;5032995;28;20046;-83
2023/08/11 08:01:23;;;;;;;11.02;4.18;;;;;;;20.15;100.00;101597.75;5033978;28;20428;-80
2023/08/11 08:03:50;;;;;;;11.30;3.40;;;;;;;20.40;100.00;101610.91;5031278;28;20049;-82
2023/08/11 08:06:17;;;;;;;10.00;3.50;;;;;;;20.55;100.00;101612.69;5033367;28;20052;-82
2023/08/11 08:08:44;;;;;;;11.30;3.20;;;;;;;20.59;100.00;101604.09;5034919;28;20057;-81
2023/08/11 08:11:11;;;;;;;8.65;3.72;;;;;;;20.82;100.00;101624.09;5035025;28;20054;-81
2023/08/11 08:13:37;;;;;;;9.45;3.55;;;;;;;20.92;100.00;101614.38;5034217;28;20140;-82
2023/08/11 08:16:04;;;;;;;11.82;3.38;;;;;;;20.87;100.00;101617.03;5032429;28;20045;-82
2023/08/11 08:18:31;;;;;;;10.80;3.42;;;;;;;20.82;100.00;101609.97;5035362;28;20053;-82
2023/08/11 08:20:57;;;;;;;14.82;3.95;;;;;;;20.91;100.00;101612.03;5030462;28;20073;-82
2023/08/11 08:23:24;;;;;;;11.85;3.03;;;;;;;20.93;100.00;101615.19;5026871;28;20813;-75
2023/08/11 08:25:51;;;;;;;13.25;2.85;;;;;;;21.17;100.00;101622.63;5026033;28;20049;-76
2023/08/11 08:28:17;;;;;;;9.52;3.08;;;;;;;21.29;100.00;101618.88;5028492;28;20049;-77
2023/08/11 08:30:44;;;;;;;10.02;3.28;;;;;;;21.34;100.00;101625.94;5028425;28;20103;-72
2023/08/11 08:33:10;;;;;;;10.55;3.03;;;;;;;21.38;100.00;101623.75;5028625;28;20049;-74
2023/08/11 08:35:37;;;;;;;6.72;2.55;;;;;;;21.44;100.00;101621.88;5026872;28;20053;-73
2023/08/11 08:38:05;;;;;;;6.65;2.78;;;;;;;21.54;100.00;101623.44;5026142;28;20041;-75
2023/08/11 08:40:34;;;;;;;9.23;3.17;;;;;;;21.69;100.00;101615.91;5029891;28;20053;-76
2023/08/11 08:43:02;;;;;;;9.00;3.28;;;;;;;21.88;100.00;101612.56;5030089;28;20053;-74
2023/08/11 08:45:35;;;;;;;8.60;3.10;;;;;;;21.86;100.00;101606.63;5028320;28;20076;-73
2023/08/11 08:48:08;;;;;;;9.63;2.90;;;;;;;22.01;100.00;101615.25;5026724;28;20144;-72
2023/08/11 08:50:36;;;;;;;10.95;3.33;;;;;;;22.08;100.00;101621.34;5032283;28;20789;-77
2023/08/11 08:53:03;;;;;;;8.38;2.75;;;;;;;22.04;100.00;101619.97;5028102;28;20123;-75
2023/08/11 08:55:29;;;;;;;10.65;3.17;;;;;;;22.13;100.00;101615.06;5025027;28;20049;-74
2023/08/11 08:57:56;;;;;;;14.10;4.15;;;;;;;22.35;100.00;101617.69;5026873;28;20121;-76
2023/08/11 09:00:23;;;;;;;10.38;3.80;;;;;;;22.41;100.00;101615.00;5026855;28;20096;-78
2023/08/11 09:02:51;;;;;;;14.05;4.22;;;;;;;22.63;100.00;101618.34;5033548;28;20138;-78
2023/08/11 09:05:18;;;;;;;10.77;3.55;;;;;;;22.78;100.00;101619.22;5023122;28;20057;-71
2023/08/11 09:07:45;;;;;;;11.15;3.13;;;;;;;22.80;100.00;101622.34;5028201;28;20053;-77
2023/08/11 09:10:11;;;;;;;14.73;3.90;;;;;;;22.93;100.00;101620.06;5028470;28;20042;-76
2023/08/11 09:12:38;;;;;;;10.90;3.63;;;;;;;22.96;100.00;101627.63;5027580;28;20049;-72
2023/08/11 09:15:11;;;;;;;11.05;3.78;;;;;;;23.02;100.00;101622.91;5025223;28;20056;-78
2023/08/11 09:17:39;;;;;;;13.27;3.60;;;;;;;23.11;100.00;101620.78;5030572;28;20080;-75
2023/08/11 09:20:10;;;;;;;8.73;3.25;;;;;;;23.26;100.00;101609.50;5027893;28;20115;-74
2023/08/11 09:22:38;;;;;;;12.60;3.65;;;;;;;23.14;100.00;101614.13;5026548;28;20116;-74
2023/08/11 09:25:05;;;;;;;7.43;3.20;;;;;;;23.39;100.00;101607.94;5025707;28;20685;-77
2023/08/11 09:27:32;;;;;;;7.93;3.22;;;;;;;23.37;100.00;101610.50;5024596;28;20061;-77
2023/08/11 09:29:59;;;;;;;7.35;3.33;;;;;;;23.52;100.00;101610.53;5030179;28;20053;-79
2023/08/11 09:32:26;;;;;;;8.65;3.38;;;;;;;23.54;100.00;101599.47;5025609;28;20053;-78
2023/08/11 09:34:53;;;;;;;7.32;2.90;;;;;;;23.75;100.00;101593.47;5033072;28;20096;-80
2023/08/11 09:37:20;;;;;;;8.00;3.28;;;;;;;23.68;100.00;101615.78;5028258;28;20088;-77
2023/08/11 09:39:49;;;;;;;11.32;3.75;;;;;;;23.91;100.00;101595.03;5030296;28;20049;-74
2023/08/11 09:42:18;;;;;;;7.10;2.15;;;;;;;23.62;100.00;101601.47;5033022;28;20054;-80
2023/08/11 09:44:45;;;;;;;9.95;3.20;;;;;;;24.13;100.00;101603.97;5031942;28;20539;-77
2023/08/11 09:47:13;;;;;;;11.35;2.63;;;;;;;24.08;100.00;101602.59;5034473;28;20759;-76
2023/08/11 09:49:48;;;;;;;9.65;3.05;;;;;;;24.26;100.00;101599.56;5034271;28;20049;-77
2023/08/11 09:52:15;;;;;;;11.68;2.47;;;;;;;24.36;100.00;101608.75;5035027;28;20180;-75
2023/08/11 09:54:43;;;;;;;7.82;2.60;;;;;;;24.41;100.00;101605.22;5018063;28;20471;-78
2023/08/11 09:57:13;;;;;;;6.85;2.55;;;;;;;24.51;100.00;101601.00;5028954;28;20045;-75
2023/08/11 09:59:44;;;;;;;7.70;3.38;;;;;;;24.76;100.00;101591.81;5029104;28;20071;-76
2023/08/11 10:02:17;;;;;;;7.32;3.10;;;;;;;24.99;100.00;101605.09;5029575;28;20041;-75
2023/08/11 10:05:06;;;;;;;6.15;2.53;;;;;;;24.83;100.00;101597.06;5029280;28;20049;-75
2023/08/11 10:07:37;;;;;;;7.05;2.92;;;;;;;25.03;100.00;101604.88;5027078;28;20041;-76
2023/08/11 10:10:10;;;;;;;8.18;3.03;;;;;;;25.19;100.00;101602.25;5030095;28;20526;-76
2023/08/11 10:12:40;;;;;;;8.95;2.80;;;;;;;25.28;100.00;101599.25;5034208;28;20050;-79
2023/08/11 10:15:10;;;;;;;7.40;3.28;;;;;;;25.24;100.00;101597.91;5031682;28;20053;-77
2023/08/11 10:17:38;;;;;;;8.18;2.88;;;;;;;25.50;100.00;101607.28;5031833;28;20049;-76
2023/08/11 10:20:07;;;;;;;7.22;2.67;;;;;;;25.33;100.00;101601.38;5029175;28;20567;-79
2023/08/11 10:22:34;;;;;;;6.80;2.88;;;;;;;25.28;100.00;101598.47;5029260;28;20053;-77
2023/08/11 10:25:04;;;;;;;8.18;3.10;;;;;;;25.30;100.00;101596.69;5029667;28;20046;-76
2023/08/11 10:27:31;;;;;;;10.30;2.60;;;;;;;25.50;100.00;101595.91;5027969;28;20444;-74
2023/08/11 10:29:58;;;;;;;12.35;4.28;;;;;;;25.68;100.00;101593.53;5031224;28;20054;-75
2023/08/11 10:32:31;;;;;;;7.32;2.88;;;;;;;25.82;100.00;101581.25;5027738;28;20053;-74
2023/08/11 10:34:58;;;;;;;8.65;2.95;;;;;;;25.77;100.00;101584.03;5025365;28;20110;-74
2023/08/11 10:37:32;;;;;;;5.90;2.72;;;;;;;26.04;100.00;101581.50;5027010;28;20053;-74
2023/08/11 10:40:06;;;;;;;6.95;2.65;;;;;;;25.95;100.00;101578.00;5026517;28;20139;-74
2023/08/11 10:42:36;;;;;;;10.50;3.03;;;;;;;25.89;100.00;101568.63;5026245;28;20562;-75
2023/08/11 10:45:12;;;;;;;8.27;3.00;;;;;;;26.09;100.00;101572.19;5026219;28;20058;-75
2023/08/11 10:47:53;;;;;;;10.05;3.58;;;;;;;26.11;100.00;101572.47;5025057;28;20049;-77
2023/08/11 10:50:21;;;;;;;1.35;0.80;;;;;;;26.15;100.00;101573.03;5026149;28;20100;-76
2023/08/11 10:53:05;;;;;;;7.82;2.60;;;;;;;26.22;100.00;101575.41;5028529;28;20107;-75
2023/08/11 10:55:35;;;;;;;5.13;2.53;;;;;;;26.31;100.00;101572.38;5023042;28;20058;-76
2023/08/11 10:58:10;;;;;;;4.55;2.30;;;;;;;26.31;100.00;101568.75;5026421;28;20046;-74
2023/08/11 11:00:36;;;;;;;9.82;3.25;;;;;;;26.75;100.00;101563.34;5026390;28;20495;-74
2023/08/11 11:03:04;;;;;;;8.38;3.13;;;;;;;26.84;100.00;101568.06;5027496;28;20072;-75
2023/08/11 11:05:31;;;;;;;6.25;2.72;;;;;;;26.95;100.00;101553.84;5024392;28;20044;-73
2023/08/11 11:07:57;;;;;;;8.35;2.85;;;;;;;26.98;100.00;101561.41;5028062;28;20118;-75
2023/08/11 11:10:24;;;;;;;5.90;2.80;;;;;;;27.17;100.00;101565.41;5026737;28;20076;-75
2023/08/11 11:13:04;;;;;;;5.82;2.72;;;;;;;27.17;100.00;101560.50;5026601;28;20719;-74
2023/08/11 11:15:32;;;;;;;5.57;2.35;;;;;;;27.25;100.00;101555.84;5027594;28;20049;-75
2023/08/11 11:17:59;;;;;;;9.63;3.05;;;;;;;27.55;100.00;101553.31;5027489;28;20041;-73